No.3 Daieimaru — JD3430 — position and weather

sailwx.info

Track history (hours):
 
Tides and Currents Weather Stations Pressure Air Temp Water Temp Dewpoint Dewpoint Depression Visibility Wind Speed Wind Dir Waves Ship Positions

No.3 Daieimaru

Last reported at 2018-Jul-03 00:12 UTC. Time now 2018-Jul-20 16:15 UTC.
Position N 33°48' E 135°04'.
Warning: this ship's position is 17 days out of date.

Length 90 m; draft 5.3 m.

Type: Tanker. MMSI: 431004049.

Date/timePositionNaut miles runAvg speedWind from/ knotsBaromVisibWave heightAir tempDewpointWater temp
2018-Jul-03 00:12N 33°48' E 135°04'212.1
2018-Jul-03 00:00N 33°50' E 135°02'611.7
2018-Jul-02 23:31N 33°55' E 134°60'612.2
2018-Jul-02 23:00N 34°02' E 134°59'612.8
2018-Jul-02 22:30N 34°08' E 134°59'713.9
2018-Jul-02 22:01N 34°15' E 134°59'713.7
2018-Jul-02 21:31N 34°22' E 134°60'714.3
2018-Jul-02 21:00N 34°29' E 135°01'714.1
2018-Jul-02 20:30N 34°36' E 135°03'914.2
2018-Jul-02 19:51N 34°34' E 134°52'514.5
2018-Jul-02 19:31N 34°32' E 134°46'713.9
2018-Jul-02 18:59N 34°29' E 134°38'  
Track history (hours):
 
Tides and Currents Weather Stations Pressure Air Temp Water Temp Dewpoint Dewpoint Depression Visibility Wind Speed Wind Dir Waves Ship Positions

No.3 Daieimaru

Last reported at 2018-Jul-03 00:12 UTC. Time now 2018-Jul-20 16:15 UTC.
Position N 33°48' E 135°04'.
Warning: this ship's position is 17 days out of date.

Length 90 m; draft 5.3 m.

Type: Tanker. MMSI: 431004049.

Date/timePositionNaut miles runAvg speedWind from/ knotsBaromVisibWave heightAir tempDewpointWater temp
2018-Jul-03 00:12N 33°48' E 135°04'212.1
2018-Jul-03 00:00N 33°50' E 135°02'611.7
2018-Jul-02 23:31N 33°55' E 134°60'612.2
2018-Jul-02 23:00N 34°02' E 134°59'612.8
2018-Jul-02 22:30N 34°08' E 134°59'713.9
2018-Jul-02 22:01N 34°15' E 134°59'713.7
2018-Jul-02 21:31N 34°22' E 134°60'714.3
2018-Jul-02 21:00N 34°29' E 135°01'714.1
2018-Jul-02 20:30N 34°36' E 135°03'914.2
2018-Jul-02 19:51N 34°34' E 134°52'514.5
2018-Jul-02 19:31N 34°32' E 134°46'713.9
2018-Jul-02 18:59N 34°29' E 134°38'  

Dump ship's entire track history